Archer, Nebraska
Current Conditions -  °F | °C
As of 5:53 PM on Wednesday 26 Nov 2014 (Local Time) from KGRI Reporting Station
Clear Clear  
Wind Chill: 14°   Ceiling: Unl
Heat Index: 26°   Visibility: 10mi
Dew Point: 17°   Wind: 15mph
Humidity: 69%   Direction: 350°N
Pressure: 30.35"   Gusts: NA
Location:  41.17°N, 98.14°W
Report Text: KGRI 262353Z 35013KT 10SM CLR M03/M08 A3035 RMK AO2 SLP303 T10331083 11006 21033 51022
Loading
Personal Weather Stations






























Interactive Weather Map New forecast layout! Learn more

10-Day Weather Forecast

Advertisements
Track Severe Weather on mobile